createdAt,value
2023-04-03T00:01:21.051Z,99687.90
2023-04-03T00:04:22.758Z,99688.77
2023-04-03T00:07:24.413Z,99689.31
2023-04-03T00:10:26.105Z,99689.66
2023-04-03T00:13:27.879Z,99689.70
2023-04-03T00:16:29.645Z,99691.23
2023-04-03T00:19:31.283Z,99691.88
2023-04-03T00:22:33.080Z,99688.30
2023-04-03T00:25:34.644Z,99686.38
2023-04-03T00:28:38.773Z,99690.98
2023-04-03T00:31:41.086Z,99694.23
2023-04-03T00:34:42.644Z,99694.96
2023-04-03T00:37:44.781Z,99693.83
2023-04-03T00:40:49.264Z,99697.64
2023-04-03T00:43:50.928Z,99699.36
2023-04-03T00:46:52.745Z,99703.94
2023-04-03T00:49:54.531Z,99704.96
2023-04-03T00:52:57.038Z,99706.67
2023-04-03T00:56:00.023Z,99704.98
2023-04-03T00:59:05.984Z,99707.38
2023-04-03T01:02:07.722Z,99706.71
2023-04-03T01:05:09.835Z,99710.33
2023-04-03T01:08:11.861Z,99711.02
2023-04-03T01:11:13.814Z,99718.19
2023-04-03T01:14:15.379Z,99717.18
2023-04-03T01:17:31.295Z,99722.98
2023-04-03T01:20:38.661Z,99726.03
2023-04-03T01:23:49.263Z,99724.86
2023-04-03T01:26:50.872Z,99727.59
2023-04-03T01:29:52.640Z,99728.14
2023-04-03T01:32:54.290Z,99728.81
2023-04-03T01:35:56.121Z,99730.54
2023-04-03T01:38:58.189Z,99739.39
2023-04-03T01:41:59.799Z,99734.62
2023-04-03T01:45:05.080Z,99742.45
2023-04-03T01:48:06.719Z,99743.98
2023-04-03T01:51:08.379Z,99741.95
2023-04-03T01:54:09.997Z,99744.84
2023-04-03T01:57:11.661Z,99746.71
2023-04-03T02:00:13.753Z,99746.21
2023-04-03T02:03:15.420Z,99747.40
2023-04-03T02:06:17.036Z,99753.02
2023-04-03T02:09:18.661Z,99755.06
2023-04-03T02:12:20.226Z,99752.67
2023-04-03T02:15:21.818Z,99750.30
2023-04-03T02:18:23.449Z,99755.58
2023-04-03T02:21:25.105Z,99757.96
2023-04-03T02:24:26.738Z,99755.06
2023-04-03T02:27:28.327Z,99761.70
2023-04-03T02:30:29.928Z,99753.70
2023-04-03T02:33:31.841Z,99762.38
2023-04-03T02:36:33.491Z,99762.89
2023-04-03T02:39:35.926Z,99761.53
2023-04-03T02:42:37.672Z,99765.61
2023-04-03T02:45:39.265Z,99762.54
2023-04-03T02:48:40.946Z,99765.77
2023-04-03T02:51:42.663Z,99765.10
2023-04-03T02:54:44.169Z,99769.36
2023-04-03T02:57:45.753Z,99768.50
2023-04-03T03:00:47.337Z,99772.23
2023-04-03T03:03:49.283Z,99779.40
2023-04-03T03:06:50.818Z,99775.48
2023-04-03T03:09:52.454Z,99781.61
2023-04-03T03:12:54.042Z,99782.12
2023-04-03T03:15:55.781Z,99783.31
2023-04-03T03:18:57.937Z,99781.79
2023-04-03T03:22:00.196Z,99788.25
2023-04-03T03:25:02.262Z,99785.69
2023-04-03T03:28:03.916Z,99789.45
2023-04-03T03:31:06.207Z,99791.14
2023-04-03T03:34:07.745Z,99792.33
2023-04-03T03:37:09.503Z,99788.60
2023-04-03T03:40:11.541Z,99790.13
2023-04-03T03:43:13.149Z,99793.54
2023-04-03T03:46:14.780Z,99794.04
2023-04-03T03:49:16.378Z,99797.09
2023-04-03T03:52:17.921Z,99796.60
2023-04-03T03:55:19.460Z,99803.40
2023-04-03T03:58:20.982Z,99804.42
2023-04-03T04:01:24.005Z,99809.70
2023-04-03T04:04:25.554Z,99813.60
2023-04-03T04:07:27.079Z,99819.91
2023-04-03T04:10:28.704Z,99817.35
2023-04-03T04:13:30.161Z,99821.08
2023-04-03T04:16:31.963Z,99819.39
2023-04-03T04:19:33.719Z,99823.63
2023-04-03T04:22:35.297Z,99824.64
2023-04-03T04:25:37.226Z,99825.67
2023-04-03T04:28:38.953Z,99827.20
2023-04-03T04:31:40.566Z,99831.29
2023-04-03T04:34:42.133Z,99829.58
2023-04-03T04:37:44.215Z,99834.50
2023-04-03T04:40:45.687Z,99833.66
2023-04-03T04:43:47.224Z,99835.19
2023-04-03T04:46:48.807Z,99837.90
2023-04-03T04:49:50.361Z,99839.11
2023-04-03T04:52:52.236Z,99840.64
2023-04-03T04:55:54.166Z,99847.61
2023-04-03T04:58:55.921Z,99846.59
2023-04-03T05:01:57.375Z,99852.21
2023-04-03T05:04:59.028Z,99853.06
2023-04-03T05:08:00.717Z,99857.50
2023-04-03T05:11:02.230Z,99856.81
2023-04-03T05:14:03.798Z,99862.26
2023-04-03T05:17:05.683Z,99862.27
2023-04-03T05:20:08.060Z,99868.91
2023-04-03T05:23:10.854Z,99868.75
2023-04-03T05:26:12.459Z,99872.30
2023-04-03T05:29:14.113Z,99876.20
2023-04-03T05:32:15.678Z,99877.05
2023-04-03T05:35:17.322Z,99881.31
2023-04-03T05:38:19.102Z,99880.83
2023-04-03T05:41:20.758Z,99885.23
2023-04-03T05:44:22.387Z,99886.95
2023-04-03T05:47:23.992Z,99889.17
2023-04-03T05:50:25.977Z,99892.57
2023-04-03T05:53:32.760Z,99893.59
2023-04-03T05:56:34.312Z,99892.23
2023-04-03T05:59:35.994Z,99896.84
2023-04-03T06:02:37.734Z,99900.42
2023-04-03T06:05:39.586Z,99900.92
2023-04-03T06:08:41.494Z,99905.02
2023-04-03T06:11:43.251Z,99906.89
2023-04-03T06:14:44.769Z,99910.11
2023-04-03T06:17:46.402Z,99911.31
2023-04-03T06:20:48.258Z,99915.91
2023-04-03T06:23:49.962Z,99916.25
2023-04-03T06:26:52.293Z,99917.63
2023-04-03T06:29:53.944Z,99920.17
2023-04-03T06:32:55.659Z,99927.33
2023-04-03T06:35:58.379Z,99928.86
2023-04-03T06:39:00.038Z,99929.88
2023-04-03T06:42:01.610Z,99931.74
2023-04-03T06:45:03.431Z,99933.27
2023-04-03T06:48:05.570Z,99933.80
2023-04-03T06:51:07.171Z,99936.86
2023-04-03T06:54:09.156Z,99940.94
2023-04-03T06:57:10.845Z,99937.02
2023-04-03T07:00:13.142Z,99940.44
2023-04-03T07:03:15.119Z,99943.16
2023-04-03T07:06:18.357Z,99943.66
2023-04-03T07:09:20.010Z,99947.41
2023-04-03T07:12:21.694Z,99953.02
2023-04-03T07:15:23.274Z,99953.36
2023-04-03T07:18:25.745Z,99957.44
2023-04-03T07:21:27.339Z,99959.98
2023-04-03T07:24:29.011Z,99967.30
2023-04-03T07:27:30.878Z,99969.70
2023-04-03T07:30:32.573Z,99975.84
2023-04-03T07:33:34.219Z,99977.55
2023-04-03T07:36:36.052Z,99981.29
2023-04-03T07:39:37.713Z,99988.63
2023-04-03T07:42:39.367Z,99992.72
2023-04-03T07:45:41.528Z,99996.10
2023-04-03T07:48:43.306Z,99993.88
2023-04-03T07:51:45.202Z,99994.35
2023-04-03T07:54:46.868Z,99998.42
2023-04-03T07:57:48.437Z,99997.39
2023-04-03T08:00:50.180Z,99999.06
2023-04-03T08:03:51.922Z,99997.85
2023-04-03T08:06:53.794Z,99998.54
2023-04-03T08:09:55.331Z,99999.91
2023-04-03T08:12:56.938Z,99998.92
2023-04-03T08:15:58.759Z,100007.13
2023-04-03T08:19:00.378Z,100011.59
2023-04-03T08:22:02.108Z,100015.67
2023-04-03T08:25:03.689Z,100023.02
2023-04-03T08:28:05.549Z,100026.77
2023-04-03T08:31:09.723Z,100028.99
2023-04-03T08:34:11.462Z,100033.77
2023-04-03T08:37:13.091Z,100037.36
2023-04-03T08:40:16.737Z,100042.31
2023-04-03T08:43:29.962Z,100045.05
2023-04-03T08:46:43.983Z,100050.15
2023-04-03T08:50:11.026Z,100051.52
2023-04-03T08:53:21.625Z,100052.54
2023-04-03T08:56:23.869Z,100055.45
2023-04-03T08:59:30.190Z,100059.87
2023-04-03T09:02:44.764Z,100057.98
2023-04-03T09:05:46.388Z,100061.41
2023-04-03T09:09:03.151Z,100061.74
2023-04-03T09:12:20.554Z,100067.20
2023-04-03T09:15:35.390Z,100067.54
2023-04-03T09:18:46.046Z,100065.80
2023-04-03T09:21:47.545Z,100069.89
2023-04-03T09:24:56.966Z,100069.86
2023-04-03T09:27:58.924Z,100075.64
2023-04-03T09:31:01.497Z,100080.41
2023-04-03T09:34:07.400Z,100086.71
2023-04-03T09:37:08.995Z,100091.14
2023-04-03T09:40:25.833Z,100088.61
2023-04-03T09:43:32.732Z,100094.57
2023-04-03T09:46:35.353Z,100096.98
2023-04-03T09:49:37.025Z,100100.38
2023-04-03T09:52:39.472Z,100099.70
2023-04-03T09:55:45.535Z,100104.83
2023-04-03T09:59:00.840Z,100104.98
2023-04-03T10:02:30.567Z,100104.67
2023-04-03T10:05:35.816Z,100111.33
2023-04-03T10:08:37.419Z,100112.70
2023-04-03T10:11:39.098Z,100112.20
2023-04-03T10:14:54.510Z,100115.45
2023-04-03T10:18:14.420Z,100115.27
2023-04-03T10:21:42.677Z,100113.40
2023-04-03T10:25:04.644Z,100114.59
2023-04-03T10:28:37.729Z,100116.31
2023-04-03T10:32:04.193Z,100122.10
2023-04-03T10:35:11.241Z,100118.06
2023-04-03T10:38:31.338Z,100109.13
2023-04-03T10:41:51.531Z,100105.27
2023-04-03T10:45:12.262Z,100104.19
2023-04-03T10:48:54.942Z,100106.78
2023-04-03T10:52:15.335Z,100101.92
2023-04-03T10:55:32.864Z,100101.68
2023-04-03T10:58:37.449Z,100101.10
2023-04-03T11:01:41.798Z,100105.36
2023-04-03T11:04:46.353Z,100108.56
2023-04-03T11:07:51.188Z,100111.71
2023-04-03T11:10:55.724Z,100110.24
2023-04-03T11:14:14.427Z,100114.89
2023-04-03T11:17:19.100Z,100112.41
2023-04-03T11:20:24.525Z,100113.92
2023-04-03T11:23:30.237Z,100110.55
2023-04-03T11:26:38.301Z,100108.21
2023-04-03T11:29:41.618Z,100104.90
2023-04-03T11:32:55.201Z,100106.86
2023-04-03T11:36:19.072Z,100108.15
2023-04-03T11:39:33.048Z,100110.48
2023-04-03T11:42:38.541Z,100106.70
2023-04-03T11:45:49.556Z,100105.55
2023-04-03T11:48:51.839Z,100108.21
2023-04-03T11:51:53.462Z,100107.57
2023-04-03T11:54:55.232Z,100108.80
2023-04-03T11:57:56.720Z,100110.64
2023-04-03T12:01:10.710Z,100114.13
2023-04-03T12:04:14.531Z,100113.95
2023-04-03T12:07:19.575Z,100114.59
2023-04-03T12:10:31.727Z,100114.50
2023-04-03T12:13:34.291Z,100119.79
2023-04-03T12:16:38.784Z,100117.91
2023-04-03T12:19:42.841Z,100117.23
2023-04-03T12:23:09.080Z,100114.35
2023-04-03T12:26:22.944Z,100118.45
2023-04-03T12:29:33.543Z,100112.06
2023-04-03T12:32:41.245Z,100116.85
2023-04-03T12:36:13.009Z,100114.68
2023-04-03T12:39:23.852Z,100112.35
2023-04-03T12:42:35.888Z,100114.31
2023-04-03T12:45:53.586Z,100115.44
2023-04-03T12:48:58.729Z,100115.74
2023-04-03T12:52:00.977Z,100117.19
2023-04-03T12:55:04.004Z,100120.15
2023-04-03T12:58:22.606Z,100116.83
2023-04-03T13:01:26.820Z,100113.52
2023-04-03T13:04:29.572Z,100117.20
2023-04-03T13:07:35.188Z,100115.88
2023-04-03T13:10:49.293Z,100115.45
2023-04-03T13:14:13.891Z,100114.55
2023-04-03T13:17:17.046Z,100114.85
2023-04-03T13:20:24.664Z,100109.27
2023-04-03T13:23:26.269Z,100108.41
2023-04-03T13:26:29.557Z,100105.10
2023-04-03T13:29:37.116Z,100103.23
2023-04-03T13:32:38.841Z,100104.23
2023-04-03T13:35:42.203Z,100101.79
2023-04-03T13:38:44.047Z,100099.39
2023-04-03T13:41:51.418Z,100095.77
2023-04-03T13:45:28.307Z,100096.45
2023-04-03T13:48:36.595Z,100095.71
2023-04-03T13:51:39.752Z,100094.52
2023-04-03T13:54:41.489Z,100094.86
2023-04-03T13:57:56.146Z,100095.54
2023-04-03T14:01:18.746Z,100096.08
2023-04-03T14:04:27.500Z,100101.10
2023-04-03T14:07:30.816Z,100096.67
2023-04-03T14:10:32.447Z,100099.07
2023-04-03T14:13:34.045Z,100095.54
2023-04-03T14:16:41.530Z,100094.87
2023-04-03T14:19:43.368Z,100092.52
2023-04-03T14:22:45.531Z,100091.69
2023-04-03T14:25:47.492Z,100092.30
2023-04-03T14:28:53.645Z,100087.80
2023-04-03T14:32:07.390Z,100089.63
2023-04-03T14:35:17.088Z,100084.08
2023-04-03T14:38:28.760Z,100086.23
2023-04-03T14:41:30.605Z,100086.50
2023-04-03T14:44:32.202Z,100081.55
2023-04-03T14:47:34.326Z,100079.37
2023-04-03T14:50:36.280Z,100079.58
2023-04-03T14:53:39.390Z,100080.31
2023-04-03T14:56:41.344Z,100079.11
2023-04-03T14:59:44.674Z,100080.66
2023-04-03T15:02:47.601Z,100084.63
2023-04-03T15:05:50.377Z,100079.39
2023-04-03T15:08:51.954Z,100077.51
2023-04-03T15:11:55.099Z,100072.95
2023-04-03T15:15:01.760Z,100073.06
2023-04-03T15:18:04.718Z,100073.59
2023-04-03T15:21:06.711Z,100071.89
2023-04-03T15:24:10.327Z,100071.28
2023-04-03T15:27:13.343Z,100071.16
2023-04-03T15:30:18.166Z,100071.16
2023-04-03T15:33:19.949Z,100070.35
2023-04-03T15:36:33.310Z,100070.45
2023-04-03T15:39:36.684Z,100067.94
2023-04-03T15:42:39.347Z,100070.65
2023-04-03T15:45:41.555Z,100070.44
2023-04-03T15:48:43.384Z,100074.09
2023-04-03T15:51:45.130Z,100076.48
2023-04-03T15:54:46.615Z,100074.71
2023-04-03T15:57:48.256Z,100074.66
2023-04-03T16:00:49.784Z,100073.40
2023-04-03T16:03:51.514Z,100074.35
2023-04-03T16:06:53.353Z,100074.20
2023-04-03T16:09:54.959Z,100074.14
2023-04-03T16:12:56.689Z,100070.44
2023-04-03T16:15:58.428Z,100074.58
2023-04-03T16:18:59.956Z,100076.24
2023-04-03T16:22:01.579Z,100073.83
2023-04-03T16:25:04.808Z,100077.83
2023-04-03T16:28:06.594Z,100078.92
2023-04-03T16:31:08.537Z,100084.23
2023-04-03T16:34:10.792Z,100079.98
2023-04-03T16:37:13.184Z,100080.88
2023-04-03T16:40:15.272Z,100079.16
2023-04-03T16:43:17.148Z,100082.23
2023-04-03T16:46:18.976Z,100081.05
2023-04-03T16:49:20.556Z,100082.63
2023-04-03T16:52:22.316Z,100091.35
2023-04-03T16:55:24.184Z,100087.63
2023-04-03T16:58:25.956Z,100089.67
2023-04-03T17:01:27.708Z,100097.20
2023-04-03T17:04:29.624Z,100097.38
2023-04-03T17:07:31.089Z,100093.45
2023-04-03T17:10:33.077Z,100097.20
2023-04-03T17:13:35.129Z,100095.15
2023-04-03T17:16:37.944Z,100098.02
2023-04-03T17:19:40.697Z,100103.64
2023-04-03T17:22:42.403Z,100103.62
2023-04-03T17:25:44.039Z,100106.15
2023-04-03T17:28:46.369Z,100104.42
2023-04-03T17:31:48.930Z,100111.86
2023-04-03T17:34:50.906Z,100116.62
2023-04-03T17:37:52.629Z,100119.99
2023-04-03T17:40:58.313Z,100122.86
2023-04-03T17:44:00.161Z,100124.88
2023-04-03T17:47:01.721Z,100124.17
2023-04-03T17:50:03.924Z,100126.35
2023-04-03T17:53:05.519Z,100126.17
2023-04-03T17:56:14.591Z,100128.40
2023-04-03T17:59:16.761Z,100130.22
2023-04-03T18:02:18.602Z,100137.18
2023-04-03T18:05:20.524Z,100138.17
2023-04-03T18:08:22.098Z,100137.94
2023-04-03T18:11:27.332Z,100140.00
2023-04-03T18:14:29.331Z,100140.66
2023-04-03T18:17:31.086Z,100140.21
2023-04-03T18:20:32.740Z,100142.83
2023-04-03T18:23:36.593Z,100140.51
2023-04-03T18:26:38.690Z,100145.15
2023-04-03T18:29:41.130Z,100143.02
2023-04-03T18:32:42.911Z,100147.14
2023-04-03T18:35:45.035Z,100147.56
2023-04-03T18:38:46.674Z,100150.20
2023-04-03T18:41:49.140Z,100157.09
2023-04-03T18:44:53.862Z,100152.11
2023-04-03T18:47:55.930Z,100151.90
2023-04-03T18:50:57.759Z,100149.84
2023-04-03T18:53:59.565Z,100152.86
2023-04-03T18:57:01.540Z,100155.20
2023-04-03T19:00:03.563Z,100153.97
2023-04-03T19:03:05.669Z,100153.75
2023-04-03T19:06:07.631Z,100157.61
2023-04-03T19:09:09.570Z,100160.28
2023-04-03T19:12:11.211Z,100163.33
2023-04-03T19:15:14.560Z,100167.08
2023-04-03T19:18:16.338Z,100161.48
2023-04-03T19:21:18.372Z,100163.21
2023-04-03T19:24:20.205Z,100159.48
2023-04-03T19:27:21.833Z,100160.02
2023-04-03T19:30:23.621Z,100155.30
2023-04-03T19:33:26.345Z,100157.35
2023-04-03T19:36:28.244Z,100158.23
2023-04-03T19:39:32.272Z,100154.70
2023-04-03T19:42:34.195Z,100162.48
2023-04-03T19:45:35.650Z,100163.23
2023-04-03T19:48:37.646Z,100162.45
2023-04-03T19:51:39.282Z,100161.94
2023-04-03T19:54:41.074Z,100164.17
2023-04-03T19:57:42.628Z,100165.90
2023-04-03T20:00:44.727Z,100166.58
2023-04-03T20:03:46.382Z,100166.06
2023-04-03T20:06:48.242Z,100165.23
2023-04-03T20:09:49.760Z,100163.45
2023-04-03T20:12:51.878Z,100158.36
2023-04-03T20:15:53.724Z,100153.31
2023-04-03T20:18:56.536Z,100149.21
2023-04-03T20:22:00.823Z,100151.60
2023-04-03T20:25:06.431Z,100147.11
2023-04-03T20:28:08.684Z,100147.05
2023-04-03T20:31:10.423Z,100148.35
2023-04-03T20:34:12.057Z,100144.02
2023-04-03T20:37:13.903Z,100147.50
2023-04-03T20:40:15.575Z,100154.39
2023-04-03T20:43:17.145Z,100155.33
2023-04-03T20:46:18.912Z,100152.98
2023-04-03T20:49:21.743Z,100150.98
2023-04-03T20:52:23.380Z,100152.55
2023-04-03T20:55:25.046Z,100152.91
2023-04-03T20:58:30.125Z,100152.11
2023-04-03T21:01:32.402Z,100158.95
2023-04-03T21:04:39.976Z,100162.21
2023-04-03T21:08:19.830Z,100158.30
2023-04-03T21:11:59.387Z,100163.93
2023-04-03T21:15:39.033Z,100166.15
2023-04-03T21:18:55.886Z,100165.98
2023-04-03T21:22:00.660Z,100171.27
2023-04-03T21:25:02.353Z,100169.25
2023-04-03T21:28:03.805Z,100169.42
2023-04-03T21:31:05.585Z,100173.00
2023-04-03T21:34:07.371Z,100173.52
2023-04-03T21:37:08.945Z,100170.98
2023-04-03T21:40:10.784Z,100169.81
2023-04-03T21:43:12.593Z,100169.65
2023-04-03T21:46:14.325Z,100171.19
2023-04-03T21:49:15.912Z,100167.76
2023-04-03T21:52:17.586Z,100165.05
2023-04-03T21:55:19.302Z,100152.45
2023-04-03T21:58:21.427Z,100145.83
2023-04-03T22:01:23.016Z,100143.27
2023-04-03T22:04:24.585Z,100145.67
2023-04-03T22:07:26.517Z,100143.80
2023-04-03T22:10:28.040Z,100135.82
2023-04-03T22:13:30.536Z,100131.92
2023-04-03T22:16:32.386Z,100123.06
2023-04-03T22:19:35.506Z,100115.25
2023-04-03T22:22:37.003Z,100109.29
2023-04-03T22:25:38.516Z,100104.88
2023-04-03T22:28:43.610Z,100099.94
2023-04-03T22:31:45.243Z,100092.10
2023-04-03T22:34:46.817Z,100084.10
2023-04-03T22:37:48.380Z,100078.50
2023-04-03T22:41:00.265Z,100073.73
2023-04-03T22:44:01.797Z,100067.27
2023-04-03T22:47:03.524Z,100064.52
2023-04-03T22:50:05.836Z,100062.98
2023-04-03T22:53:07.408Z,100054.31
2023-04-03T22:56:08.967Z,100046.47
2023-04-03T22:59:10.559Z,100043.73
2023-04-03T23:02:12.342Z,100039.47
2023-04-03T23:05:16.983Z,100038.77
2023-04-03T23:08:19.120Z,100039.09
2023-04-03T23:11:21.062Z,100038.05
2023-04-03T23:14:22.760Z,100034.11
2023-04-03T23:17:24.399Z,100034.10
2023-04-03T23:20:25.938Z,100034.25
2023-04-03T23:23:27.553Z,100031.70
2023-04-03T23:26:29.169Z,100026.27
2023-04-03T23:29:33.805Z,100021.99
2023-04-03T23:32:35.400Z,100016.20
2023-04-03T23:35:50.716Z,100015.68
2023-04-03T23:38:56.247Z,100014.81
2023-04-03T23:41:58.032Z,100015.31
2023-04-03T23:44:59.746Z,100013.75
2023-04-03T23:48:01.360Z,100017.13
2023-04-03T23:51:03.094Z,100015.92
2023-04-03T23:54:04.630Z,100012.33
2023-04-03T23:57:06.169Z,100017.91
